createdAt,value
2017-11-01T00:00:00.682Z,0
2017-11-01T00:01:22.170Z,0
2017-11-01T00:02:43.675Z,0
2017-11-01T00:04:05.848Z,0
2017-11-01T00:05:28.404Z,0
2017-11-01T00:06:49.954Z,0
2017-11-01T00:08:12.472Z,0
2017-11-01T00:09:34.332Z,0
2017-11-01T00:10:56.909Z,0
2017-11-01T00:12:19.086Z,0
2017-11-01T00:13:41.245Z,0
2017-11-01T00:15:03.401Z,0
2017-11-01T00:16:24.920Z,0
2017-11-01T00:17:46.787Z,0
2017-11-01T00:19:09.281Z,0
2017-11-01T00:20:31.518Z,0
2017-11-01T00:21:53.465Z,0
2017-11-01T00:23:15.336Z,0
2017-11-01T00:24:38.057Z,0
2017-11-01T00:26:00.226Z,0
2017-11-01T00:27:22.455Z,0
2017-11-01T00:28:44.976Z,0
2017-11-01T00:30:07.163Z,0
2017-11-01T00:31:29.317Z,0
2017-11-01T00:32:51.238Z,0
2017-11-01T00:34:13.074Z,0
2017-11-01T00:35:34.949Z,0
2017-11-01T00:36:56.808Z,0
2017-11-01T00:38:19.342Z,0
2017-11-01T00:39:40.524Z,0
2017-11-01T00:41:02.053Z,0
2017-11-01T00:42:23.894Z,0
2017-11-01T00:43:46.449Z,0
2017-11-01T00:45:08.636Z,0
2017-11-01T00:46:30.478Z,0
2017-11-01T00:47:52.476Z,0
2017-11-01T00:49:14.131Z,0
2017-11-01T00:50:36.501Z,0
2017-11-01T00:51:58.672Z,0
2017-11-01T00:53:20.505Z,0
2017-11-01T00:54:42.018Z,0
2017-11-01T00:56:03.638Z,0
2017-11-01T00:57:25.815Z,0
2017-11-01T00:58:48.052Z,0
2017-11-01T01:00:09.916Z,0
2017-11-01T01:01:32.141Z,0
2017-11-01T01:02:54.829Z,0
2017-11-01T01:04:16.708Z,0
2017-11-01T01:05:38.566Z,0
2017-11-01T01:07:00.434Z,0
2017-11-01T01:08:22.938Z,0
2017-11-01T01:09:44.122Z,0
2017-11-01T01:11:05.957Z,0
2017-11-01T01:12:28.196Z,0
2017-11-01T01:13:50.672Z,0
2017-11-01T01:15:12.898Z,0
2017-11-01T01:16:34.726Z,0
2017-11-01T01:17:57.226Z,0
2017-11-01T01:19:19.780Z,0
2017-11-01T01:20:41.285Z,0
2017-11-01T01:22:03.476Z,0
2017-11-01T01:23:25.044Z,0
2017-11-01T01:24:46.577Z,0
2017-11-01T01:26:08.438Z,0
2017-11-01T01:27:29.932Z,0
2017-11-01T01:28:52.095Z,0
2017-11-01T01:30:13.940Z,0
2017-11-01T01:31:35.857Z,0
2017-11-01T01:32:57.748Z,0
2017-11-01T01:34:19.972Z,0
2017-11-01T01:35:42.367Z,0
2017-11-01T01:37:04.580Z,0
2017-11-01T01:38:26.429Z,0
2017-11-01T01:39:48.981Z,0
2017-11-01T01:41:10.800Z,0
2017-11-01T01:42:33.036Z,0
2017-11-01T01:43:55.227Z,0
2017-11-01T01:45:17.405Z,0
2017-11-01T01:46:39.235Z,0
2017-11-01T01:48:00.405Z,0
2017-11-01T01:49:22.555Z,0
2017-11-01T01:50:44.118Z,0
2017-11-01T01:52:05.937Z,0
2017-11-01T01:53:28.117Z,0
2017-11-01T01:54:49.620Z,0
2017-11-01T01:56:11.231Z,0
2017-11-01T01:57:33.487Z,0
2017-11-01T01:58:55.384Z,0
2017-11-01T02:00:17.337Z,0
2017-11-01T02:01:39.167Z,0
2017-11-01T02:03:00.977Z,0
2017-11-01T02:04:22.915Z,0
2017-11-01T02:05:44.093Z,0
2017-11-01T02:07:06.389Z,0
2017-11-01T02:08:28.221Z,0
2017-11-01T02:09:49.792Z,0
2017-11-01T02:11:11.621Z,0
2017-11-01T02:12:33.875Z,0
2017-11-01T02:13:55.746Z,0
2017-11-01T02:15:17.605Z,0
2017-11-01T02:16:39.461Z,0
2017-11-01T02:18:01.406Z,0
2017-11-01T02:19:22.600Z,0
2017-11-01T02:20:45.108Z,0
2017-11-01T02:22:07.304Z,0
2017-11-01T02:23:29.912Z,0
2017-11-01T02:24:52.367Z,0
2017-11-01T02:26:14.879Z,0
2017-11-01T02:27:36.745Z,0
2017-11-01T02:28:58.925Z,0
2017-11-01T02:30:20.776Z,0
2017-11-01T02:31:42.627Z,0
2017-11-01T02:33:04.940Z,0
2017-11-01T02:34:26.793Z,0
2017-11-01T02:35:48.754Z,0
2017-11-01T02:37:10.916Z,0
2017-11-01T02:38:33.177Z,0
2017-11-01T02:39:55.025Z,0
2017-11-01T02:41:17.844Z,0
2017-11-01T02:42:39.362Z,0
2017-11-01T02:44:01.239Z,0
2017-11-01T02:45:23.084Z,0
2017-11-01T02:46:45.275Z,0
2017-11-01T02:48:07.455Z,0
2017-11-01T02:49:29.301Z,0
2017-11-01T02:50:51.207Z,0
2017-11-01T02:52:13.695Z,0
2017-11-01T02:53:35.986Z,0
2017-11-01T02:54:58.163Z,0
2017-11-01T02:56:20.382Z,0
2017-11-01T02:57:41.582Z,0
2017-11-01T02:59:03.176Z,0
2017-11-01T03:00:25.703Z,0
2017-11-01T03:01:47.893Z,0
2017-11-01T03:03:09.734Z,0
2017-11-01T03:04:31.936Z,0
2017-11-01T03:05:54.145Z,0
2017-11-01T03:07:16.344Z,0
2017-11-01T03:08:37.965Z,0
2017-11-01T03:09:59.822Z,0
2017-11-01T03:11:21.666Z,0
2017-11-01T03:12:42.826Z,0
2017-11-01T03:14:04.667Z,0
2017-11-01T03:15:26.684Z,0
2017-11-01T03:16:48.567Z,0
2017-11-01T03:18:10.747Z,0
2017-11-01T03:19:33.343Z,0
2017-11-01T03:20:55.517Z,0
2017-11-01T03:22:17.693Z,0
2017-11-01T03:23:39.206Z,0
2017-11-01T03:25:00.720Z,0
2017-11-01T03:26:22.900Z,0
2017-11-01T03:27:45.156Z,0
2017-11-01T03:29:06.985Z,0
2017-11-01T03:30:29.085Z,0
2017-11-01T03:31:50.958Z,0
2017-11-01T03:33:12.832Z,0
2017-11-01T03:34:34.773Z,0
2017-11-01T03:35:56.956Z,0
2017-11-01T03:37:18.798Z,0
2017-11-01T03:38:40.971Z,0
2017-11-01T03:40:02.265Z,0
2017-11-01T03:41:24.715Z,0
2017-11-01T03:42:46.890Z,0
2017-11-01T03:44:08.473Z,0
2017-11-01T03:45:30.324Z,0
2017-11-01T03:46:52.504Z,0
2017-11-01T03:48:14.341Z,0
2017-11-01T03:49:35.866Z,0
2017-11-01T03:50:58.405Z,0
2017-11-01T03:52:20.252Z,0
2017-11-01T03:53:42.455Z,0
2017-11-01T03:55:03.993Z,0
2017-11-01T03:56:26.619Z,0
2017-11-01T03:57:48.776Z,0
2017-11-01T03:59:10.624Z,0
2017-11-01T04:00:33.148Z,0
2017-11-01T04:01:55.304Z,0
2017-11-01T04:03:16.825Z,0
2017-11-01T04:04:39.344Z,0
2017-11-01T04:06:01.523Z,0
2017-11-01T04:07:23.372Z,0
2017-11-01T04:08:46.379Z,0
2017-11-01T04:10:08.914Z,0
2017-11-01T04:11:30.105Z,0
2017-11-01T04:12:52.311Z,0
2017-11-01T04:14:14.208Z,0
2017-11-01T04:15:36.096Z,0
2017-11-01T04:16:58.267Z,0
2017-11-01T04:18:19.782Z,0
2017-11-01T04:19:42.210Z,0
2017-11-01T04:21:04.105Z,0
2017-11-01T04:22:26.048Z,0
2017-11-01T04:23:47.892Z,0
2017-11-01T04:25:09.364Z,0
2017-11-01T04:26:30.885Z,0
2017-11-01T04:27:52.740Z,0
2017-11-01T04:29:14.904Z,0
2017-11-01T04:30:37.164Z,0
2017-11-01T04:31:59.028Z,0
2017-11-01T04:33:20.916Z,0
2017-11-01T04:34:42.744Z,0
2017-11-01T04:36:03.932Z,0
2017-11-01T04:37:25.796Z,0
2017-11-01T04:38:47.994Z,0
2017-11-01T04:40:09.904Z,0
2017-11-01T04:41:32.094Z,0
2017-11-01T04:42:54.032Z,0
2017-11-01T04:44:16.278Z,0
2017-11-01T04:45:38.440Z,0
2017-11-01T04:47:00.940Z,0
2017-11-01T04:48:23.104Z,0
2017-11-01T04:49:44.975Z,0
2017-11-01T04:51:06.498Z,0
2017-11-01T04:52:28.332Z,0
2017-11-01T04:53:50.607Z,0
2017-11-01T04:55:12.463Z,0
2017-11-01T04:56:34.318Z,0
2017-11-01T04:57:56.220Z,0
2017-11-01T04:59:18.391Z,0
2017-11-01T05:00:40.229Z,0
2017-11-01T05:02:02.409Z,0
2017-11-01T05:03:23.911Z,0
2017-11-01T05:04:45.763Z,0
2017-11-01T05:06:07.943Z,0
2017-11-01T05:07:30.131Z,0
2017-11-01T05:08:52.694Z,0
2017-11-01T05:10:14.864Z,0
2017-11-01T05:11:37.387Z,0
2017-11-01T05:12:59.564Z,0
2017-11-01T05:14:21.082Z,0
2017-11-01T05:15:43.720Z,0
2017-11-01T05:17:05.566Z,0
2017-11-01T05:18:27.727Z,0
2017-11-01T05:19:49.580Z,0
2017-11-01T05:21:11.735Z,0
2017-11-01T05:22:33.248Z,0
2017-11-01T05:23:55.429Z,0
2017-11-01T05:25:16.957Z,0
2017-11-01T05:26:39.513Z,0
2017-11-01T05:28:01.097Z,0
2017-11-01T05:29:23.262Z,0
2017-11-01T05:30:45.738Z,0
2017-11-01T05:32:08.256Z,0
2017-11-01T05:33:30.464Z,0
2017-11-01T05:34:52.305Z,0
2017-11-01T05:36:14.523Z,0
2017-11-01T05:37:36.439Z,0
2017-11-01T05:38:58.598Z,0
2017-11-01T05:40:20.124Z,0
2017-11-01T05:41:42.463Z,0
2017-11-01T05:43:04.293Z,0
2017-11-01T05:44:26.803Z,0
2017-11-01T05:45:49.072Z,0
2017-11-01T05:47:11.403Z,0
2017-11-01T05:48:33.304Z,0
2017-11-01T05:49:55.203Z,0
2017-11-01T05:51:17.387Z,0
2017-11-01T05:52:39.580Z,0
2017-11-01T05:54:02.095Z,0
2017-11-01T05:55:24.611Z,0
2017-11-01T05:56:46.473Z,0
2017-11-01T05:58:08.320Z,64
2017-11-01T05:59:29.828Z,60
2017-11-01T06:00:52.005Z,4
2017-11-01T06:02:14.212Z,4
2017-11-01T06:03:36.833Z,4
2017-11-01T06:04:59.021Z,4
2017-11-01T06:06:21.258Z,8
2017-11-01T06:07:43.102Z,12
2017-11-01T06:09:05.600Z,12
2017-11-01T06:10:27.825Z,16
2017-11-01T06:11:49.993Z,76
2017-11-01T06:13:11.881Z,20
2017-11-01T06:14:34.154Z,24
2017-11-01T06:15:56.673Z,32
2017-11-01T06:17:19.169Z,36
2017-11-01T06:18:41.012Z,40
2017-11-01T06:20:02.865Z,44
2017-11-01T06:21:24.370Z,48
2017-11-01T06:22:46.021Z,56
2017-11-01T06:24:08.315Z,72
2017-11-01T06:25:30.318Z,64
2017-11-01T06:26:52.885Z,92
2017-11-01T06:28:14.758Z,92
2017-11-01T06:29:36.627Z,104
2017-11-01T06:30:58.849Z,132
2017-11-01T06:32:20.707Z,136
2017-11-01T06:33:42.922Z,164
2017-11-01T06:35:04.470Z,148
2017-11-01T06:36:26.216Z,140
2017-11-01T06:37:48.732Z,172
2017-11-01T06:39:10.923Z,208
2017-11-01T06:40:33.109Z,204
2017-11-01T06:41:54.981Z,256
2017-11-01T06:43:17.643Z,276
2017-11-01T06:44:39.825Z,312
2017-11-01T06:46:01.737Z,320
2017-11-01T06:47:24.270Z,320
2017-11-01T06:48:46.105Z,292
2017-11-01T06:50:08.077Z,300
2017-11-01T06:51:30.591Z,312
2017-11-01T06:52:52.767Z,304
2017-11-01T06:54:14.629Z,300
2017-11-01T06:55:36.812Z,408
2017-11-01T06:56:59.379Z,396
2017-11-01T06:58:21.543Z,368
2017-11-01T06:59:43.918Z,404
2017-11-01T07:01:05.103Z,356
2017-11-01T07:02:27.560Z,392
2017-11-01T07:03:49.752Z,428
2017-11-01T07:05:12.002Z,408
2017-11-01T07:06:34.620Z,460
2017-11-01T07:07:56.474Z,620
2017-11-01T07:09:18.680Z,560
2017-11-01T07:10:41.353Z,536
2017-11-01T07:12:03.178Z,508
2017-11-01T07:13:25.376Z,520
2017-11-01T07:14:47.536Z,552
2017-11-01T07:16:10.036Z,580
2017-11-01T07:17:32.275Z,488
2017-11-01T07:18:54.125Z,536
2017-11-01T07:20:16.352Z,504
2017-11-01T07:21:38.233Z,504
2017-11-01T07:23:00.410Z,464
2017-11-01T07:24:22.652Z,504
2017-11-01T07:25:44.265Z,512
2017-11-01T07:27:06.819Z,648
2017-11-01T07:28:28.973Z,744
2017-11-01T07:29:50.482Z,724
2017-11-01T07:31:12.103Z,732
2017-11-01T07:32:34.608Z,896
2017-11-01T07:33:56.454Z,904
2017-11-01T07:35:18.624Z,1100
2017-11-01T07:36:40.463Z,1000
2017-11-01T07:38:02.343Z,944
2017-11-01T07:39:23.856Z,1088
2017-11-01T07:40:45.413Z,1212
2017-11-01T07:42:07.590Z,1280
2017-11-01T07:43:29.805Z,1268
2017-11-01T07:44:51.981Z,992
2017-11-01T07:46:14.479Z,1092
2017-11-01T07:47:36.925Z,1164
2017-11-01T07:48:59.510Z,1288
2017-11-01T07:50:21.398Z,1268
2017-11-01T07:51:43.339Z,1292
2017-11-01T07:53:05.175Z,1596
2017-11-01T07:54:27.071Z,1668
2017-11-01T07:55:49.631Z,1940
2017-11-01T07:57:11.467Z,1980
2017-11-01T07:58:33.430Z,1512
2017-11-01T07:59:55.930Z,1104
2017-11-01T08:01:18.186Z,1100
2017-11-01T08:02:40.698Z,1020
2017-11-01T08:04:03.195Z,1020
2017-11-01T08:05:25.363Z,1096
2017-11-01T08:06:46.881Z,1136
2017-11-01T08:08:09.055Z,1656
2017-11-01T08:09:31.594Z,1644
2017-11-01T08:10:53.447Z,1440
2017-11-01T08:12:15.617Z,1496
2017-11-01T08:13:37.792Z,1840
2017-11-01T08:14:59.397Z,1996
2017-11-01T08:16:21.656Z,2024
2017-11-01T08:17:43.162Z,2316
2017-11-01T08:19:05.347Z,2240
2017-11-01T08:20:27.534Z,2000
2017-11-01T08:21:49.768Z,1976
2017-11-01T08:23:11.632Z,1940
2017-11-01T08:24:33.479Z,2124
2017-11-01T08:25:55.676Z,2040
2017-11-01T08:27:18.198Z,1956
2017-11-01T08:28:39.706Z,1732
2017-11-01T08:30:01.581Z,1456
2017-11-01T08:31:23.794Z,1492
2017-11-01T08:32:45.985Z,1628
2017-11-01T08:34:08.168Z,1696
2017-11-01T08:35:29.701Z,1756
2017-11-01T08:36:51.597Z,1552
2017-11-01T08:38:13.463Z,1300
2017-11-01T08:39:35.721Z,1468
2017-11-01T08:40:57.563Z,1920
2017-11-01T08:42:19.062Z,1732
2017-11-01T08:43:41.255Z,2012
2017-11-01T08:45:02.791Z,1764
2017-11-01T08:46:24.962Z,1740
2017-11-01T08:47:46.833Z,1508
2017-11-01T08:49:08.773Z,1416
2017-11-01T08:50:31.320Z,1352
2017-11-01T08:51:53.819Z,1724
2017-11-01T08:53:16.330Z,1624
2017-11-01T08:54:38.945Z,1848
2017-11-01T08:56:00.835Z,1968
2017-11-01T08:57:22.397Z,2444
2017-11-01T08:58:44.595Z,2732
2017-11-01T09:00:06.473Z,2984
2017-11-01T09:01:28.660Z,2592
2017-11-01T09:02:50.155Z,2248
2017-11-01T09:04:12.733Z,1924
2017-11-01T09:05:35.333Z,1936
2017-11-01T09:06:57.170Z,2120
2017-11-01T09:08:19.397Z,2208
2017-11-01T09:09:41.670Z,2272
2017-11-01T09:11:03.586Z,2884
2017-11-01T09:12:25.764Z,2488
2017-11-01T09:13:47.633Z,2112
2017-11-01T09:15:09.945Z,2100
2017-11-01T09:16:31.793Z,1636
2017-11-01T09:17:53.967Z,1560
2017-11-01T09:19:16.185Z,1760
2017-11-01T09:20:38.761Z,2020
2017-11-01T09:22:00.645Z,1960
2017-11-01T09:23:23.151Z,1904
2017-11-01T09:24:44.682Z,2124
2017-11-01T09:26:06.895Z,1976
2017-11-01T09:27:29.121Z,1760
2017-11-01T09:28:50.956Z,1760
2017-11-01T09:30:12.823Z,1724
2017-11-01T09:31:34.594Z,1616
2017-11-01T09:32:56.217Z,1952
2017-11-01T09:34:19.045Z,1964
2017-11-01T09:35:43.763Z,2120
2017-11-01T09:37:05.022Z,2052
2017-11-01T09:38:27.115Z,2220
2017-11-01T09:39:48.953Z,1852
2017-11-01T09:41:10.471Z,1876
2017-11-01T09:42:32.753Z,2076
2017-11-01T09:43:54.605Z,2088
2017-11-01T09:45:17.123Z,2228
2017-11-01T09:46:38.640Z,2856
2017-11-01T09:48:01.281Z,2744
2017-11-01T09:49:23.465Z,2736
2017-11-01T09:50:45.642Z,2640
2017-11-01T09:52:08.781Z,2552
2017-11-01T09:53:30.974Z,2768
2017-11-01T09:54:52.477Z,3008
2017-11-01T09:56:15.022Z,2752
2017-11-01T09:57:36.894Z,3108
2017-11-01T09:58:58.405Z,2596
2017-11-01T10:00:22.098Z,3224
2017-11-01T10:01:44.589Z,2664
2017-11-01T10:03:07.106Z,3032
2017-11-01T10:04:28.999Z,2648
2017-11-01T10:05:51.187Z,2572
2017-11-01T10:07:13.363Z,2512
2017-11-01T10:08:35.794Z,2572
2017-11-01T10:09:57.678Z,2716
2017-11-01T10:11:19.205Z,2696
2017-11-01T10:12:41.717Z,2952
2017-11-01T10:14:04.568Z,3216
2017-11-01T10:15:27.395Z,3268
2017-11-01T10:16:50.111Z,3120
2017-11-01T10:18:11.948Z,3144
2017-11-01T10:19:33.811Z,3136
2017-11-01T10:20:55.982Z,2940
2017-11-01T10:22:18.228Z,3132
2017-11-01T10:23:39.744Z,2744
2017-11-01T10:25:01.252Z,2936
2017-11-01T10:26:23.483Z,2948
2017-11-01T10:27:45.704Z,3272
2017-11-01T10:29:07.235Z,3120
2017-11-01T10:30:29.744Z,3132
2017-11-01T10:31:51.955Z,3208
2017-11-01T10:33:13.804Z,3388
2017-11-01T10:34:35.647Z,3460
2017-11-01T10:35:57.824Z,3592
2017-11-01T10:37:20.355Z,3032
2017-11-01T10:38:45.299Z,2912
2017-11-01T10:40:07.473Z,3084
2017-11-01T10:41:29.680Z,3356
2017-11-01T10:42:51.557Z,2780
2017-11-01T10:44:14.067Z,2756
2017-11-01T10:45:36.254Z,3100
2017-11-01T10:46:58.554Z,3084
2017-11-01T10:48:19.747Z,3388
2017-11-01T10:49:41.605Z,3252
2017-11-01T10:51:03.457Z,3600
2017-11-01T10:52:25.294Z,3204
2017-11-01T10:53:47.821Z,3728
2017-11-01T10:55:10.439Z,3500
2017-11-01T10:56:32.641Z,3856
2017-11-01T10:57:55.364Z,3688
2017-11-01T10:59:17.444Z,4092
2017-11-01T11:00:38.957Z,3832
2017-11-01T11:02:01.138Z,3508
2017-11-01T11:03:23.655Z,3760
2017-11-01T11:04:45.834Z,3368
2017-11-01T11:06:07.675Z,4296
2017-11-01T11:07:29.859Z,4048
2017-11-01T11:08:52.085Z,3952
2017-11-01T11:10:14.587Z,3708
2017-11-01T11:11:36.134Z,3420
2017-11-01T11:12:57.657Z,3976
2017-11-01T11:14:19.524Z,4268
2017-11-01T11:15:41.712Z,3920
2017-11-01T11:17:03.890Z,3124
2017-11-01T11:18:25.785Z,2872
2017-11-01T11:19:48.293Z,3468
2017-11-01T11:21:10.151Z,3628
2017-11-01T11:22:32.678Z,4104
2017-11-01T11:23:54.194Z,4016
2017-11-01T11:25:16.387Z,4180
2017-11-01T11:26:38.832Z,4780
2017-11-01T11:28:01.111Z,3964
2017-11-01T11:29:23.722Z,4920
2017-11-01T11:30:45.250Z,5600
2017-11-01T11:32:07.472Z,4540
2017-11-01T11:33:28.972Z,5192
2017-11-01T11:34:51.151Z,5696
2017-11-01T11:36:13.321Z,4920
2017-11-01T11:37:35.526Z,5400
2017-11-01T11:38:57.732Z,5444
2017-11-01T11:40:19.599Z,5788
2017-11-01T11:41:41.807Z,6256
2017-11-01T11:43:03.414Z,6544
2017-11-01T11:44:24.613Z,6620
2017-11-01T11:45:46.790Z,7676
2017-11-01T11:47:09.326Z,6772
2017-11-01T11:48:32.173Z,6876
2017-11-01T11:49:54.704Z,7948
2017-11-01T11:51:16.565Z,7784
2017-11-01T11:52:39.087Z,7224
2017-11-01T11:54:00.940Z,7872
2017-11-01T11:55:23.133Z,9204
2017-11-01T11:56:45.322Z,8288
2017-11-01T11:58:07.335Z,9924
2017-11-01T11:59:29.181Z,9792
2017-11-01T12:00:51.069Z,11468
2017-11-01T12:02:13.356Z,11468
2017-11-01T12:03:35.553Z,9936
2017-11-01T12:04:57.840Z,8316
2017-11-01T12:06:19.370Z,7524
2017-11-01T12:07:41.563Z,7504
2017-11-01T12:09:04.085Z,6248
2017-11-01T12:10:25.989Z,6876
2017-11-01T12:11:48.187Z,7224
2017-11-01T12:13:10.031Z,6852
2017-11-01T12:14:31.906Z,5240
2017-11-01T12:15:54.423Z,5612
2017-11-01T12:17:16.374Z,5688
2017-11-01T12:18:38.571Z,5352
2017-11-01T12:20:00.445Z,5356
2017-11-01T12:21:22.651Z,5312
2017-11-01T12:22:45.293Z,5716
2017-11-01T12:24:07.186Z,5180
2017-11-01T12:25:29.365Z,6188
2017-11-01T12:26:50.577Z,5228
2017-11-01T12:28:12.775Z,4880
2017-11-01T12:29:35.023Z,5400
2017-11-01T12:30:57.552Z,4604
2017-11-01T12:32:19.467Z,4896
2017-11-01T12:33:41.318Z,5484
2017-11-01T12:35:02.514Z,5340
2017-11-01T12:36:24.693Z,4920
2017-11-01T12:37:46.553Z,4480
2017-11-01T12:39:08.473Z,5112
2017-11-01T12:40:30.111Z,5304
2017-11-01T12:41:52.657Z,5204
2017-11-01T12:43:14.674Z,4312
2017-11-01T12:44:36.547Z,5028
2017-11-01T12:45:58.757Z,4500
2017-11-01T12:47:20.665Z,5176
2017-11-01T12:48:42.861Z,5700
2017-11-01T12:50:05.052Z,5732
2017-11-01T12:51:27.596Z,5508
2017-11-01T12:52:50.133Z,4840
2017-11-01T12:54:12.355Z,4800
2017-11-01T12:55:33.888Z,4836
2017-11-01T12:56:55.723Z,4988
2017-11-01T12:58:17.904Z,4980
2017-11-01T12:59:40.187Z,5552
2017-11-01T13:01:02.018Z,5460
2017-11-01T13:02:24.564Z,5104
2017-11-01T13:03:47.078Z,4332
2017-11-01T13:05:09.776Z,3508
2017-11-01T13:06:31.326Z,3088
2017-11-01T13:07:53.171Z,2228
2017-11-01T13:09:15.364Z,1956
2017-11-01T13:10:37.550Z,2268
2017-11-01T13:11:59.849Z,2028
2017-11-01T13:13:22.045Z,2688
2017-11-01T13:14:44.221Z,3260
2017-11-01T13:16:06.492Z,3736
2017-11-01T13:17:28.348Z,4000
2017-11-01T13:18:50.559Z,4440
2017-11-01T13:20:13.101Z,5452
2017-11-01T13:21:35.288Z,6800
2017-11-01T13:22:56.841Z,7288
2017-11-01T13:24:18.759Z,7740
2017-11-01T13:25:41.290Z,8288
2017-11-01T13:27:03.163Z,9616
2017-11-01T13:28:25.405Z,8496
2017-11-01T13:29:47.710Z,7748
2017-11-01T13:31:09.895Z,8052
2017-11-01T13:32:32.355Z,8464
2017-11-01T13:33:54.550Z,7760
2017-11-01T13:35:16.052Z,7780
2017-11-01T13:36:37.663Z,6504
2017-11-01T13:37:59.181Z,4304
2017-11-01T13:39:21.153Z,3788
2017-11-01T13:40:43.355Z,3768
2017-11-01T13:42:05.870Z,3712
2017-11-01T13:43:28.204Z,4260
2017-11-01T13:44:50.061Z,4524
2017-11-01T13:46:11.924Z,4880
2017-11-01T13:47:34.446Z,4716
2017-11-01T13:48:56.355Z,5360
2017-11-01T13:50:18.234Z,4952
2017-11-01T13:51:40.434Z,5260
2017-11-01T13:53:02.955Z,5128
2017-11-01T13:54:25.168Z,4812
2017-11-01T13:55:46.359Z,4500
2017-11-01T13:57:08.283Z,4076
2017-11-01T13:58:30.192Z,3692
2017-11-01T13:59:53.119Z,3468
2017-11-01T14:01:14.982Z,2904
2017-11-01T14:02:36.858Z,3024
2017-11-01T14:03:59.390Z,2832
2017-11-01T14:05:21.893Z,2764
2017-11-01T14:06:44.414Z,2476
2017-11-01T14:08:05.602Z,2648
2017-11-01T14:09:28.164Z,2428
2017-11-01T14:10:50.433Z,2928
2017-11-01T14:12:12.963Z,3452
2017-11-01T14:13:34.810Z,3000
2017-11-01T14:14:57.008Z,2984
2017-11-01T14:16:18.531Z,3316
2017-11-01T14:17:40.064Z,3568
2017-11-01T14:19:02.632Z,3720
2017-11-01T14:20:24.487Z,3936
2017-11-01T14:21:47.035Z,4028
2017-11-01T14:23:09.230Z,3728
2017-11-01T14:24:31.099Z,3156
2017-11-01T14:25:53.333Z,2828
2017-11-01T14:27:15.518Z,2976
2017-11-01T14:28:38.050Z,2860
2017-11-01T14:30:00.560Z,2736
2017-11-01T14:31:21.765Z,2656
2017-11-01T14:32:44.292Z,2764
2017-11-01T14:34:06.819Z,2768
2017-11-01T14:35:29.108Z,2712
2017-11-01T14:36:51.652Z,2552
2017-11-01T14:38:13.883Z,2516
2017-11-01T14:39:35.474Z,2484
2017-11-01T14:40:58.022Z,2228
2017-11-01T14:42:20.244Z,2088
2017-11-01T14:43:41.794Z,2196
2017-11-01T14:45:03.665Z,2144
2017-11-01T14:46:25.864Z,1864
2017-11-01T14:47:48.165Z,1612
2017-11-01T14:49:10.365Z,1296
2017-11-01T14:50:32.567Z,1192
2017-11-01T14:51:54.485Z,916
2017-11-01T14:53:16.330Z,868
2017-11-01T14:54:38.524Z,736
2017-11-01T14:56:00.737Z,664
2017-11-01T14:57:22.634Z,600
2017-11-01T14:58:44.961Z,624
2017-11-01T15:00:07.484Z,732
2017-11-01T15:01:29.693Z,636
2017-11-01T15:02:52.313Z,616
2017-11-01T15:04:13.910Z,480
2017-11-01T15:05:36.412Z,424
2017-11-01T15:06:58.293Z,388
2017-11-01T15:08:20.149Z,396
2017-11-01T15:09:42.684Z,412
2017-11-01T15:11:04.887Z,440
2017-11-01T15:12:26.762Z,468
2017-11-01T15:13:48.954Z,460
2017-11-01T15:15:10.843Z,448
2017-11-01T15:16:33.456Z,424
2017-11-01T15:17:55.429Z,384
2017-11-01T15:19:17.432Z,360
2017-11-01T15:20:39.627Z,352
2017-11-01T15:22:02.153Z,288
2017-11-01T15:23:24.074Z,280
2017-11-01T15:24:46.304Z,300
2017-11-01T15:26:08.593Z,324
2017-11-01T15:27:31.102Z,340
2017-11-01T15:28:53.632Z,332
2017-11-01T15:30:15.482Z,308
2017-11-01T15:31:37.674Z,284
2017-11-01T15:33:00.204Z,264
2017-11-01T15:34:22.389Z,224
2017-11-01T15:35:44.647Z,200
2017-11-01T15:37:07.167Z,188
2017-11-01T15:38:29.382Z,156
2017-11-01T15:39:51.556Z,136
2017-11-01T15:41:13.781Z,132
2017-11-01T15:42:36.316Z,128
2017-11-01T15:43:58.851Z,128
2017-11-01T15:45:21.019Z,124
2017-11-01T15:46:43.034Z,104
2017-11-01T15:48:04.915Z,88
2017-11-01T15:49:27.122Z,68
2017-11-01T15:50:49.672Z,52
2017-11-01T15:52:11.215Z,44
2017-11-01T15:53:33.416Z,40
2017-11-01T15:54:55.725Z,28
2017-11-01T15:56:18.319Z,20
2017-11-01T15:57:40.520Z,20
2017-11-01T15:59:03.055Z,16
2017-11-01T16:00:25.695Z,16
2017-11-01T16:01:48.229Z,12
2017-11-01T16:03:10.747Z,68
2017-11-01T16:04:33.276Z,8
2017-11-01T16:05:55.835Z,4
2017-11-01T16:07:18.034Z,4
2017-11-01T16:08:40.255Z,4
2017-11-01T16:10:02.589Z,0
2017-11-01T16:11:24.846Z,4
2017-11-01T16:12:47.056Z,4
2017-11-01T16:14:09.283Z,4
2017-11-01T16:15:31.805Z,0
2017-11-01T16:16:54.340Z,0
2017-11-01T16:18:16.202Z,0
2017-11-01T16:19:38.408Z,0
2017-11-01T16:21:00.933Z,0
2017-11-01T16:22:23.483Z,0
2017-11-01T16:23:45.693Z,0
2017-11-01T16:25:08.234Z,0
2017-11-01T16:26:30.453Z,0
2017-11-01T16:27:53.064Z,0
2017-11-01T16:29:15.606Z,0
2017-11-01T16:30:37.533Z,0
2017-11-01T16:32:00.157Z,0
2017-11-01T16:33:22.788Z,0
2017-11-01T16:34:44.997Z,0
2017-11-01T16:36:07.221Z,0
2017-11-01T16:37:29.447Z,0
2017-11-01T16:38:51.679Z,0
2017-11-01T16:40:14.329Z,0
2017-11-01T16:41:36.736Z,0
2017-11-01T16:42:58.610Z,0
2017-11-01T16:44:20.560Z,0
2017-11-01T16:45:42.776Z,0
2017-11-01T16:47:04.657Z,0
2017-11-01T16:48:27.204Z,0
2017-11-01T16:49:49.598Z,0
2017-11-01T16:51:12.176Z,0
2017-11-01T16:52:34.390Z,0
2017-11-01T16:53:56.926Z,0
2017-11-01T16:55:19.445Z,0
2017-11-01T16:56:41.674Z,0
2017-11-01T16:58:04.203Z,0
2017-11-01T16:59:26.815Z,0
2017-11-01T17:00:48.693Z,0
2017-11-01T17:02:11.235Z,0
2017-11-01T17:03:33.764Z,0
2017-11-01T17:04:56.358Z,0
2017-11-01T17:06:18.908Z,0
2017-11-01T17:07:41.148Z,0
2017-11-01T17:09:03.811Z,0
2017-11-01T17:10:26.419Z,0
2017-11-01T17:11:49.101Z,0
2017-11-01T17:13:10.998Z,0
2017-11-01T17:14:33.570Z,0
2017-11-01T17:15:55.816Z,0
2017-11-01T17:17:18.374Z,0
2017-11-01T17:18:40.657Z,0
2017-11-01T17:20:03.325Z,0
2017-11-01T17:21:25.626Z,0
2017-11-01T17:22:47.843Z,0
2017-11-01T17:24:10.117Z,0
2017-11-01T17:25:32.717Z,0
2017-11-01T17:26:54.956Z,0
2017-11-01T17:28:17.528Z,0
2017-11-01T17:29:42.549Z,0
2017-11-01T17:31:04.842Z,0
2017-11-01T17:32:27.372Z,0
2017-11-01T17:33:49.259Z,0
2017-11-01T17:35:11.118Z,0
2017-11-01T17:36:33.336Z,0
2017-11-01T17:37:55.918Z,0
2017-11-01T17:39:18.275Z,0
2017-11-01T17:40:40.516Z,0
2017-11-01T17:42:03.043Z,0
2017-11-01T17:43:25.573Z,0
2017-11-01T17:44:48.104Z,0
2017-11-01T17:46:10.315Z,0
2017-11-01T17:47:32.996Z,0
2017-11-01T17:48:55.240Z,0
2017-11-01T17:50:17.526Z,0
2017-11-01T17:51:39.738Z,0
2017-11-01T17:53:02.283Z,0
2017-11-01T17:54:24.817Z,0
2017-11-01T17:55:47.367Z,0
2017-11-01T17:57:09.922Z,0
2017-11-01T17:58:31.826Z,0
2017-11-01T17:59:54.386Z,0
2017-11-01T18:01:16.907Z,0
2017-11-01T18:02:39.470Z,0
2017-11-01T18:04:01.674Z,0
2017-11-01T18:05:24.246Z,0
2017-11-01T18:06:46.806Z,0
2017-11-01T18:08:09.327Z,0
2017-11-01T18:09:31.907Z,0
2017-11-01T18:10:54.470Z,0
2017-11-01T18:12:16.655Z,0
2017-11-01T18:13:38.981Z,0
2017-11-01T18:15:01.526Z,0
2017-11-01T18:16:23.540Z,0
2017-11-01T18:17:46.114Z,0
2017-11-01T18:19:08.641Z,0
2017-11-01T18:20:30.855Z,0
2017-11-01T18:21:53.036Z,0
2017-11-01T18:23:14.914Z,0
2017-11-01T18:24:37.149Z,0
2017-11-01T18:25:59.347Z,0
2017-11-01T18:27:21.567Z,0
2017-11-01T18:28:44.229Z,0
2017-11-01T18:30:06.447Z,0
2017-11-01T18:31:28.323Z,0
2017-11-01T18:32:50.883Z,0
2017-11-01T18:34:13.297Z,0
2017-11-01T18:35:35.863Z,0
2017-11-01T18:36:58.435Z,0
2017-11-01T18:38:20.954Z,0
2017-11-01T18:39:43.177Z,0
2017-11-01T18:41:05.077Z,0
2017-11-01T18:42:27.617Z,0
2017-11-01T18:43:49.590Z,0
2017-11-01T18:45:12.137Z,0
2017-11-01T18:46:34.376Z,0
2017-11-01T18:47:56.951Z,0
2017-11-01T18:49:19.206Z,0
2017-11-01T18:50:41.766Z,0
2017-11-01T18:52:03.989Z,0
2017-11-01T18:53:26.170Z,0
2017-11-01T18:54:48.520Z,0
2017-11-01T18:56:11.380Z,0
2017-11-01T18:57:33.238Z,0
2017-11-01T18:58:55.815Z,0
2017-11-01T19:00:18.436Z,0
2017-11-01T19:01:40.298Z,0
2017-11-01T19:03:02.559Z,0
2017-11-01T19:04:24.766Z,0
2017-11-01T19:05:46.961Z,0
2017-11-01T19:07:08.890Z,0
2017-11-01T19:08:32.094Z,0
2017-11-01T19:09:54.806Z,0
2017-11-01T19:11:16.755Z,0
2017-11-01T19:12:39.381Z,0
2017-11-01T19:14:01.855Z,0
2017-11-01T19:15:24.413Z,0